Kingsgate, Washington
Current Conditions -  °F | °C
As of 12:17 AM on Monday 26 Jan 2015 (Local Time) from KBFI Reporting Station
Moderate Fog Moderate Fog  
Wind Chill: 50°   Ceiling: 200
Heat Index: 50°   Visibility: 0.5mi
Dew Point: 46°   Wind: 0mph
Humidity: 87%   Direction: NA
Pressure: 29.96"   Gusts: NA
Location:  47.7179°N, 122.204°W
Report Text: KBFI 260817Z 00000KT 1/2SM FG OVC002 10/08 A2996 RMK AO2
Loading
Personal Weather Stations






























Interactive Weather Map New forecast layout! Learn more

10-Day Weather Forecast

Advertisements
Track Severe Weather on mobile